Portada
METAR-TAF:

METAR-TAF

Aeroports :

Pickens, Carolina del Sud, Estats Units d'Amèrica

latitud: 34-48-36N, longitud: 082-42-10W, altitud: 309 m

Observació

L'informe es va fer fa 34 minuts, a les 04:15 UTC
Vent calma
Temperatura 21°C
Humitat 100%
Pressió 1022 hPa
Visibilitat: 11.3 km
Cel clar

METAR: KLQK 240415Z AUTO 00000KT 7SM CLR 21/21 A3017 RMK AO2 T02090209

Hora: 00:49 (04:49 UTC)


TAF: manca

Observacions i pronòstics meteorològics de més de 4000 aeroports (METAR i TAF).

Les estacions disponibles són els punts grocs i vermells al mapa.

Posi el ratolí al punt desitjat per veure el nom de l'estació.

Feu clic per veure les observacions i els pronòstics meteorològics.

Per canviar el mapa: feu clic els botons verds amb una creu de color negre per apropar; al botó verd amb un guió per allunyar la imatge; o en les fletxes verdes per a mapes adjacents.


METAR-TAF: